Monday, March 30, 2015
09:25 UTC
  |  Log In   |  Register Free
Airport Search:

Alpena County Regional Airport
(KAPN)

FAA data valid effective March 05, 2015 - April 30, 2015 (unless otherwise noted).

 
 
 
 
 
 
 
 
 
 
 
 
 
 

Current Aviation Weather for Alpena County Regional Airport (KAPN)

The most recent METAR observation for KAPN was updated at: 1407
METAR Summary (Translated METAR)
KAPN
251354Z AUTO 13015G24KT 6SM UP BKN033 BKN041 OVC060 00/M03 A2982 RMK AO2 UPB24 SLP107 P0000 T00001028
KPZQ
251354Z AUTO 12008G14KT 5SM UP BKN039 OVC048 00/M02 A2980 RMK AO2 T10021019
(22.5 nm NW from KAPN)
KOSC
251354Z AUTO 12010G15KT 4SM -SN SCT033 BKN048 OVC060 00/M01 A2982 RMK AO2 P0003 T00001010
(38.3 nm SE from KAPN)
TAF Summary (Translated TAF)
KAPN
251120Z 2512/2612 12008KT P6SM BKN250 WS012/16035KT FM251230 11007KT P6SM OVC060 WS010/16035KT FM251400 12012KT 6SM -FZRAPL OVC008 WS013/15035KT FM251600 14011KT 6SM -RA OVC004 FM251900 25010G17KT P6SM OVC025 FM252200 25011G21KT P6SM BKN035 FM260100 24008KT P6SM SCT040
  Airport Weather Conditions for KAPN

 Current Weather at APN
35° F
Overcast
West winds at 12.7 mph
APN NOAA Radar

Pressure: 29.64 in
Humidity: 85%
Wind: from the West at 12.7 gusting to 20.7 MPH (11 gusting to 18 KT)
Dew Point: 30.9°F
Visibility: 9.00 mi


Airport Weather Forecast for KAPN

Translated METAR and TAF for KAPN
Translated METAR for KAPN (0924 UTC 30 March 2015)
found at http://aviationweather.gov/adds/metars/
 
METAR text: KAPN 300854Z AUTO 28011G18KT 9SM FEW015 BKN023 OVC036 02/M01 A2964 RMK AO2 UPB0757E07B50E54SNB41E50 SLP043 P0000 60000 T00171006 53026
Conditions at: KAPN (ALPENA , MI, US) observed 0854 UTC 30 March 2015
Temperature: 1.7°C (35°F)
Dewpoint: -0.6°C (31°F) [RH = 85%]
Pressure (altimeter): 29.64 inches Hg (1003.8 mb)
[Sea-level pressure: 1004.3 mb]
Winds: from the W (280 degrees) at 13 MPH (11 knots; 5.7 m/s)
gusting to 21 MPH (18 knots; 9.4 m/s)
Visibility: 9 miles (14 km)
Ceiling: 2300 feet AGL
Clouds: few clouds at 1500 feet AGL
broken clouds at 2300 feet AGL
overcast cloud deck at 3600 feet AGL
Weather: automated observation with no human augmentation;
there may or may not be significant weather present at this time
Translated TAF for KAPN
Forecast for: KAPN (ALPENA , MI, US)
TAF Text: KAPN 300520Z 3006/3106 27011G19KT P6SM -SN OVC015
Forecast period: 0600 to 1000 UTC 30 March 2015
Forecast type: FROM: standard forecast or significant change
Winds: from the W (270 degrees) at 13 MPH (11 knots; 5.7 m/s)
gusting to 22 MPH (19 knots; 9.9 m/s)
Visibility: 6 or more miles (10+ km)
Ceiling: 1500 feet AGL
Clouds: overcast cloud deck at 1500 feet AGL
Weather: -SN  (light snow)
TAF Text: FM301000 27011G19KT P6SM BKN035
Forecast period: 1000 to 1800 UTC 30 March 2015
Forecast type: FROM: standard forecast or significant change
Winds: from the W (270 degrees) at 13 MPH (11 knots; 5.7 m/s)
gusting to 22 MPH (19 knots; 9.9 m/s)
Visibility: 6 or more miles (10+ km)
Ceiling: 3500 feet AGL
Clouds: broken clouds at 3500 feet AGL
Weather: no significant weather forecast for this period
TAF Text: FM301800 30013G21KT P6SM SCT050
Forecast period: 1800 UTC 30 March 2015 to 0000 UTC 31 March 2015
Forecast type: FROM: standard forecast or significant change
Winds: from the WNW (300 degrees) at 15 MPH (13 knots; 6.8 m/s)
gusting to 24 MPH (21 knots; 10.9 m/s)
Visibility: 6 or more miles (10+ km)
Clouds: scattered clouds at 5000 feet AGL
Weather: no significant weather forecast for this period
TAF Text: FM310000 31003KT P6SM BKN250
Forecast period: 0000 to 0600 UTC 31 March 2015
Forecast type: FROM: standard forecast or significant change
Winds: from the NW (310 degrees) at 3 MPH (3 knots; 1.6 m/s)
Visibility: 6 or more miles (10+ km)
Ceiling: 25000 feet AGL
Clouds: broken clouds at 25000 feet AGL
Weather: no significant weather forecast for this period

Find All Airport Services Find A Hotel Find A Rental Car Find A Golf Course Find A Restaurant $100 Hamburger



FBO's on the Field
FBO Company Facility Photos Services Transportation Aviation Fuel Prices: Prices include tax
Catering Weather Repair Courtesy Rental Type 100LL JetA JetA+ MOGAS 8087
 
Aviation Express Inc.

Currently rated 1.2 by 1 person
FS:Shell
Last Updated: Mar-03
Login to update fuel prices
SS:
Contact Aviation Express Inc.More FBO Information
 
Aviation North

This FBO has not yet been rated
FS:Avfuel
Last Updated: Mar-23
Login to update fuel prices
SS:
Contact Aviation NorthMore FBO Information
 
Add another FBO Facility Photos Catering Weather Repair Courtesy Rental Type 100LL JetA JetA+ MOGAS 8087
Services Transportation Aviation Fuel Prices: Prices include tax


model-print
model-print
model-print
model-print